Time;durP1;ratioP1;P1;durP2;ratioP2;P2;SDS_P1;SDS_P2;PMS_P1;PMS_P2;Temp;Humidity;BMP_temperature;BMP_pressure;BME280_temperature;BME280_humidity;BME280_pressure;Samples;Min_cycle;Max_cycle;Signal;HPM_P1;HPM_P2
2022/08/03 00:04:30;;;;;;;48.60;36.55;;;16.20;99.90;;;;;;10453606;28;20057;-79
2022/08/03 00:09:31;;;;;;;41.38;32.65;;;16.10;99.90;;;;;;10462432;28;20170;-79
2022/08/03 00:14:31;;;;;;;39.35;32.08;;;16.10;99.90;;;;;;10453972;28;20043;-79
2022/08/03 00:19:33;;;;;;;43.30;32.38;;;16.10;99.90;;;;;;10458952;28;20147;-79
2022/08/03 00:24:35;;;;;;;40.70;31.67;;;16.10;99.90;;;;;;10458092;28;20028;-79
2022/08/03 00:29:35;;;;;;;48.35;34.97;;;16.00;99.90;;;;;;10464224;28;20036;-80
2022/08/03 00:34:36;;;;;;;66.25;40.08;;;15.90;99.90;;;;;;10453842;28;20017;-79
2022/08/03 00:39:36;;;;;;;37.78;30.10;;;15.80;99.90;;;;;;10452757;28;20599;-79
2022/08/03 00:44:41;;;;;;;44.70;33.67;;;15.80;99.90;;;;;;10466613;28;20036;-79
2022/08/03 00:49:42;;;;;;;68.47;36.83;;;15.80;99.90;;;;;;10462191;28;20029;-79
2022/08/03 00:54:43;;;;;;;57.55;36.88;;;15.80;99.90;;;;;;10460673;28;20789;-80
2022/08/03 00:59:43;;;;;;;43.13;33.40;;;15.70;99.90;;;;;;10463038;28;20040;-80
2022/08/03 01:04:44;;;;;;;65.40;37.30;;;15.70;99.90;;;;;;10452297;28;20049;-79
2022/08/03 01:10:10;;;;;;;83.25;39.95;;;15.60;99.90;;;;;;10456143;28;20491;-78
2022/08/03 01:15:36;;;;;;;49.72;35.92;;;15.50;99.90;;;;;;10455412;28;20036;-80
2022/08/03 01:20:41;;;;;;;48.78;37.17;;;15.40;99.90;;;;;;10456664;28;20029;-79
2022/08/03 01:26:13;;;;;;;60.60;43.57;;;15.50;99.90;;;;;;10464139;28;20021;-79
2022/08/03 01:31:17;;;;;;;69.55;42.33;;;15.60;99.90;;;;;;10455627;28;20286;-79
2022/08/03 01:36:32;;;;;;;48.83;37.60;;;15.50;99.90;;;;;;10465114;28;20029;-79
2022/08/03 01:41:37;;;;;;;51.58;39.80;;;15.60;99.90;;;;;;10466683;23;20053;-79
2022/08/03 01:46:39;;;;;;;46.28;34.72;;;15.60;99.90;;;;;;10387979;28;20248;-79
2022/08/03 01:51:42;;;;;;;45.22;35.85;;;15.50;99.90;;;;;;10372596;28;20493;-79
2022/08/03 01:56:45;;;;;;;53.60;36.80;;;15.50;99.90;;;;;;10377021;28;20022;-79
2022/08/03 02:01:47;;;;;;;49.55;39.00;;;15.40;99.90;;;;;;10375292;28;20117;-79
2022/08/03 02:06:48;;;;;;;47.53;36.75;;;15.30;99.90;;;;;;10396114;28;20121;-79
2022/08/03 02:11:50;;;;;;;67.47;48.13;;;15.40;99.90;;;;;;10421082;28;20203;-79
2022/08/03 02:16:52;;;;;;;54.75;38.85;;;15.40;99.90;;;;;;10427880;28;20033;-79
2022/08/03 02:21:53;;;;;;;158.88;57.88;;;15.40;99.90;;;;;;10423263;28;20083;-80
2022/08/03 02:26:55;;;;;;;54.35;40.78;;;15.40;99.90;;;;;;10435642;28;20043;-79
2022/08/03 02:31:59;;;;;;;74.45;42.53;;;15.40;99.90;;;;;;10430895;28;20047;-79
2022/08/03 02:37:01;;;;;;;108.30;38.63;;;15.40;99.90;;;;;;10417452;28;20068;-79
2022/08/03 02:42:04;;;;;;;157.60;43.45;;;15.30;99.90;;;;;;10436229;28;20060;-79
2022/08/03 02:47:09;;;;;;;83.65;32.75;;;15.20;99.90;;;;;;10432791;28;20034;-79
2022/08/03 02:52:11;;;;;;;37.03;25.33;;;15.20;99.90;;;;;;10428334;28;20025;-78
2022/08/03 02:57:13;;;;;;;30.63;23.77;;;15.00;99.90;;;;;;10429953;28;20028;-78
2022/08/03 03:02:15;;;;;;;29.65;23.60;;;14.80;99.90;;;;;;10430008;28;20492;-78
2022/08/03 03:07:17;;;;;;;34.60;24.63;;;14.80;99.90;;;;;;10422168;28;20033;-79
2022/08/03 03:12:19;;;;;;;32.50;23.05;;;14.70;99.90;;;;;;10425623;28;20041;-79
2022/08/03 03:17:21;;;;;;;38.53;24.88;;;14.60;99.90;;;;;;10421246;28;20120;-81
2022/08/03 03:22:23;;;;;;;23.77;21.08;;;14.50;99.90;;;;;;10425658;28;20485;-80
2022/08/03 03:27:24;;;;;;;27.83;21.95;;;14.40;99.90;;;;;;10430727;28;20071;-80
2022/08/03 03:32:28;;;;;;;29.70;23.65;;;14.40;99.90;;;;;;10425692;28;20039;-80
2022/08/03 03:37:29;;;;;;;35.80;26.73;;;14.40;99.90;;;;;;10420539;28;20077;-81
2022/08/03 03:42:30;;;;;;;29.20;23.48;;;14.40;99.90;;;;;;10419866;28;20048;-80
2022/08/03 03:47:33;;;;;;;32.72;25.42;;;14.40;99.90;;;;;;10428516;28;20083;-81
2022/08/03 03:52:33;;;;;;;27.73;22.90;;;14.50;99.90;;;;;;10431359;28;20071;-81
2022/08/03 03:57:34;;;;;;;34.85;27.20;;;14.60;99.90;;;;;;10442138;28;20357;-80
2022/08/03 04:02:35;;;;;;;32.75;25.90;;;14.70;99.90;;;;;;10422606;28;20108;-80
2022/08/03 04:13:16;;;;;;;28.70;23.30;;;14.90;99.90;;;;;;10426094;28;20033;-82
2022/08/03 04:18:17;;;;;;;38.92;30.55;;;14.90;99.90;;;;;;10420757;28;20355;-81
2022/08/03 04:23:24;;;;;;;46.80;34.83;;;15.00;99.90;;;;;;10424509;28;20393;-80
2022/08/03 04:28:25;;;;;;;34.55;28.88;;;15.10;99.90;;;;;;10438596;28;20027;-85
2022/08/03 04:33:26;;;;;;;35.42;29.13;;;15.40;99.90;;;;;;10413542;28;20104;-83
2022/08/03 04:38:30;;;;;;;36.50;30.50;;;15.60;99.90;;;;;;10409967;28;20025;-81
2022/08/03 04:43:33;;;;;;;31.85;27.10;;;15.90;99.90;;;;;;10417058;28;20060;-82
2022/08/03 04:48:34;;;;;;;31.25;24.52;;;16.20;99.90;;;;;;10417269;28;20040;-83
2022/08/03 04:53:34;;;;;;;26.30;23.25;;;16.40;99.90;;;;;;10409290;28;20016;-82
2022/08/03 04:58:35;;;;;;;27.17;24.27;;;16.60;99.90;;;;;;10417366;28;20500;-82
2022/08/03 05:03:35;;;;;;;34.63;29.17;;;16.80;99.90;;;;;;10423492;28;20115;-83
2022/08/03 05:08:36;;;;;;;34.10;29.27;;;17.00;99.90;;;;;;10417878;28;20452;-82
2022/08/03 05:13:37;;;;;;;41.08;33.63;;;17.20;99.90;;;;;;10420035;28;20481;-82
2022/08/03 05:18:38;;;;;;;35.20;30.55;;;17.20;99.90;;;;;;10423099;28;20040;-82
2022/08/03 05:23:39;;;;;;;36.40;31.35;;;17.30;99.90;;;;;;10427062;28;20034;-82
2022/08/03 05:28:39;;;;;;;37.25;30.65;;;17.30;99.90;;;;;;10428917;28;20029;-83
2022/08/03 05:33:40;;;;;;;40.30;32.03;;;17.30;99.90;;;;;;10415633;28;20091;-82
2022/08/03 05:38:40;;;;;;;43.80;33.38;;;17.30;99.90;;;;;;10424865;28;20797;-81
2022/08/03 05:43:41;;;;;;;47.72;35.17;;;17.30;99.90;;;;;;10420648;28;20060;-83
2022/08/03 05:48:42;;;;;;;41.90;33.28;;;17.50;99.90;;;;;;10401736;28;20448;-82
2022/08/03 05:53:43;;;;;;;46.45;33.55;;;17.80;99.90;;;;;;10407317;28;20116;-82
2022/08/03 05:58:45;;;;;;;46.97;34.13;;;18.10;99.90;;;;;;10427608;28;20133;-83
2022/08/03 06:03:46;;;;;;;51.40;35.88;;;18.30;99.90;;;;;;10428660;28;20033;-83
2022/08/03 06:08:47;;;;;;;43.03;33.20;;;18.60;99.90;;;;;;10428245;28;20021;-82
2022/08/03 06:13:48;;;;;;;41.95;33.53;;;18.80;99.90;;;;;;10433547;28;20113;-83
2022/08/03 06:18:48;;;;;;;39.80;33.25;;;19.00;99.90;;;;;;10419376;28;20041;-82
2022/08/03 06:23:49;;;;;;;42.70;35.97;;;19.00;99.90;;;;;;10423248;28;20519;-82
2022/08/03 06:28:50;;;;;;;38.40;34.05;;;19.10;99.90;;;;;;10422420;28;20099;-83
2022/08/03 06:33:50;;;;;;;34.53;30.55;;;19.30;99.90;;;;;;10430971;28;20014;-81
2022/08/03 06:38:51;;;;;;;33.72;28.70;;;19.40;99.90;;;;;;10420967;28;20030;-82
2022/08/03 06:43:52;;;;;;;29.02;24.60;;;19.70;99.90;;;;;;10437037;28;20049;-82
2022/08/03 06:48:55;;;;;;;29.15;25.45;;;19.90;99.90;;;;;;10425709;28;20037;-82
2022/08/03 06:53:55;;;;;;;29.80;24.67;;;20.10;99.90;;;;;;10434447;28;20101;-82
2022/08/03 06:58:56;;;;;;;32.95;27.15;;;20.20;99.90;;;;;;10421659;28;20112;-83
2022/08/03 07:03:57;;;;;;;30.35;26.95;;;20.40;99.90;;;;;;10432954;28;20037;-83
2022/08/03 07:08:58;;;;;;;31.17;24.83;;;20.90;99.90;;;;;;10441733;28;20032;-84
2022/08/03 07:20:43;;;;;;;14.13;6.45;;;23.80;99.90;;;;;;10439566;28;20446;-83
2022/08/03 07:25:53;;;;;;;19.65;12.48;;;25.00;99.90;;;;;;10409722;28;20024;-83
2022/08/03 07:48:58;;;;;;;12.57;5.97;;;25.50;99.90;;;;;;11140936;23;20053;-82
2022/08/03 08:00:21;;;;;;;9.88;5.53;;;25.40;99.90;;;;;;10237082;28;20033;-82
2022/08/03 08:05:22;;;;;;;9.95;5.18;;;25.40;99.90;;;;;;10345237;28;20442;-82
2022/08/03 08:10:55;;;;;;;15.85;7.70;;;25.40;99.90;;;;;;10307411;28;20480;-82
2022/08/03 08:27:03;;;;;;;13.32;8.70;;;25.30;99.90;;;;;;12046011;23;20058;-82
2022/08/03 08:38:34;;;;;;;11.35;5.70;;;25.50;99.90;;;;;;12049136;23;20025;-82
2022/08/03 08:55:38;;;;;;;10.52;7.35;;;26.20;99.90;;;;;;10319127;28;20425;-82
2022/08/03 09:00:52;;;;;;;9.18;5.88;;;25.80;99.90;;;;;;10323140;28;20057;-83
2022/08/03 09:05:53;;;;;;;12.63;8.27;;;25.60;99.10;;;;;;10311749;28;20516;-83
2022/08/03 09:10:54;;;;;;;16.40;9.73;;;25.70;99.90;;;;;;10305090;28;20113;-82
2022/08/03 09:16:11;;;;;;;15.13;10.27;;;25.30;99.90;;;;;;10309637;28;20683;-82
2022/08/03 09:21:19;;;;;;;15.20;10.32;;;25.80;99.90;;;;;;10319553;28;20041;-83
2022/08/03 09:26:24;;;;;;;13.32;8.10;;;26.50;99.90;;;;;;10322834;28;20045;-83
2022/08/03 09:31:39;;;;;;;12.90;7.55;;;26.80;95.20;;;;;;10333230;28;20030;-84
2022/08/03 09:36:43;;;;;;;6.53;4.32;;;27.20;99.30;;;;;;10327452;28;20030;-83
2022/08/03 09:41:47;;;;;;;7.57;5.18;;;27.90;98.30;;;;;;10330538;28;20688;-84
2022/08/03 09:46:52;;;;;;;9.27;5.87;;;27.90;93.30;;;;;;10330696;28;20019;-82
2022/08/03 09:52:28;;;;;;;9.70;5.03;;;27.60;93.10;;;;;;10323188;28;20038;-84
2022/08/03 09:57:31;;;;;;;7.03;4.97;;;27.80;94.50;;;;;;10326306;28;20022;-83
2022/08/03 10:02:32;;;;;;;7.68;5.15;;;27.90;93.70;;;;;;10322490;28;20039;-84
2022/08/03 10:07:49;;;;;;;12.20;5.88;;;27.40;93.70;;;;;;10327253;28;20030;-84
2022/08/03 10:12:50;;;;;;;6.25;3.75;;;26.60;92.70;;;;;;10325828;28;20413;-83
2022/08/03 10:18:41;;;;;;;5.53;4.35;;;26.30;94.90;;;;;;10309126;28;20065;-83
2022/08/03 10:41:57;;;;;;;10.35;7.25;;;27.60;94.00;;;;;;10079789;29;20060;-82
2022/08/03 10:46:59;;;;;;;13.25;8.57;;;27.90;91.30;;;;;;10258459;28;20031;-84
2022/08/03 10:52:00;;;;;;;10.82;6.82;;;28.20;93.30;;;;;;10307651;28;20022;-82
2022/08/03 11:02:20;;;;;;;13.95;7.28;;;27.20;91.70;;;;;;10320839;28;20046;-82
2022/08/03 11:07:24;;;;;;;16.50;10.88;;;27.80;91.50;;;;;;10315849;28;20038;-83
2022/08/03 11:12:30;;;;;;;13.57;11.15;;;28.60;88.10;;;;;;10328631;28;20037;-83
2022/08/03 11:17:32;;;;;;;16.08;10.88;;;28.70;90.40;;;;;;10329428;28;20109;-81
2022/08/03 11:22:53;;;;;;;14.30;10.35;;;29.10;87.80;;;;;;10327782;28;20037;-80
2022/08/03 11:28:27;;;;;;;16.48;11.25;;;29.20;89.00;;;;;;10324055;28;20035;-82
2022/08/03 11:33:29;;;;;;;13.63;10.68;;;29.40;83.20;;;;;;10318435;28;20030;-83
2022/08/03 11:38:29;;;;;;;13.43;10.35;;;29.70;85.90;;;;;;10323922;28;20037;-82
2022/08/03 11:43:30;;;;;;;12.73;8.93;;;29.50;78.80;;;;;;10307780;28;20057;-82
2022/08/03 11:48:36;;;;;;;10.52;6.72;;;28.40;75.90;;;;;;10324608;28;20104;-81
2022/08/03 11:53:37;;;;;;;8.27;5.35;;;27.80;78.10;;;;;;10308744;28;20038;-82
2022/08/03 11:58:47;;;;;;;12.40;6.88;;;28.20;83.20;;;;;;10321069;28;20110;-82
2022/08/03 12:03:48;;;;;;;14.45;7.82;;;28.40;80.10;;;;;;10305549;28;20022;-81
2022/08/03 12:08:48;;;;;;;9.07;3.80;;;28.50;79.20;;;;;;10320209;28;20046;-83
2022/08/03 12:13:50;;;;;;;12.27;5.60;;;28.90;81.70;;;;;;10320488;28;20022;-83
2022/08/03 12:19:05;;;;;;;9.00;4.28;;;28.90;76.30;;;;;;10322678;28;20030;-82
2022/08/03 12:24:05;;;;;;;8.63;5.72;;;28.60;74.20;;;;;;10324306;28;20018;-82
2022/08/03 12:29:06;;;;;;;7.88;5.68;;;28.60;77.10;;;;;;10318508;28;20479;-84
2022/08/03 12:34:08;;;;;;;13.05;7.75;;;28.70;75.70;;;;;;10320356;28;20547;-82
2022/08/03 12:39:10;;;;;;;12.65;6.53;;;28.80;78.20;;;;;;10304284;28;20085;-81
2022/08/03 12:44:11;;;;;;;8.13;5.38;;;29.00;75.30;;;;;;10322574;28;20104;-81
2022/08/03 12:49:17;;;;;;;11.00;6.65;;;29.00;77.90;;;;;;10322988;28;20109;-82
2022/08/03 12:54:20;;;;;;;10.73;6.88;;;29.00;74.80;;;;;;10318792;28;20046;-83
2022/08/03 12:59:29;;;;;;;13.40;8.57;;;28.60;73.20;;;;;;10320817;28;20138;-84
2022/08/03 13:04:33;;;;;;;11.77;7.88;;;28.30;74.40;;;;;;10321126;28;20038;-82
2022/08/03 13:09:48;;;;;;;13.48;9.30;;;28.40;75.30;;;;;;10301740;28;20062;-82
2022/08/03 13:14:51;;;;;;;12.70;8.38;;;28.70;77.50;;;;;;10312866;28;20249;-82
2022/08/03 13:19:52;;;;;;;15.70;8.87;;;28.80;75.70;;;;;;10322364;28;20038;-83
2022/08/03 13:24:55;;;;;;;11.63;6.47;;;28.30;73.10;;;;;;10315395;28;20031;-81
2022/08/03 13:29:56;;;;;;;12.10;8.43;;;28.20;76.00;;;;;;10318118;28;20122;-82
2022/08/03 13:34:57;;;;;;;17.70;7.75;;;28.30;75.40;;;;;;10303230;28;20019;-83
2022/08/03 13:39:58;;;;;;;17.27;10.43;;;28.50;73.40;;;;;;10316474;28;20050;-82
2022/08/03 13:44:59;;;;;;;13.10;9.10;;;28.30;76.60;;;;;;10322343;28;20109;-81
2022/08/03 13:50:00;;;;;;;12.73;9.40;;;27.80;75.50;;;;;;10322956;28;20062;-82
2022/08/03 13:55:03;;;;;;;15.88;10.93;;;27.90;77.30;;;;;;10320205;28;20109;-83
2022/08/03 14:00:05;;;;;;;16.55;10.65;;;28.20;78.40;;;;;;10320301;28;20443;-83
2022/08/03 14:05:06;;;;;;;10.02;6.30;;;28.30;76.60;;;;;;10318932;28;20086;-82
2022/08/03 14:10:08;;;;;;;9.50;4.97;;;28.30;76.40;;;;;;10322304;28;20165;-81
2022/08/03 14:15:08;;;;;;;6.10;2.97;;;28.40;77.40;;;;;;10325137;28;20030;-82
2022/08/03 14:20:11;;;;;;;11.30;6.82;;;28.40;74.90;;;;;;10312447;28;20038;-82
2022/08/03 14:25:12;;;;;;;9.15;5.93;;;28.30;76.40;;;;;;10329528;28;20101;-82
2022/08/03 14:30:12;;;;;;;7.13;5.40;;;28.20;75.90;;;;;;10322466;28;20113;-82
2022/08/03 14:35:13;;;;;;;8.57;6.10;;;28.10;75.80;;;;;;10307521;28;20034;-81
2022/08/03 14:40:14;;;;;;;10.48;6.57;;;27.90;75.30;;;;;;10325768;28;20100;-81
2022/08/03 14:45:14;;;;;;;10.60;5.70;;;27.80;75.80;;;;;;10325044;28;20069;-84
2022/08/03 14:50:15;;;;;;;7.80;5.07;;;27.70;77.00;;;;;;10308563;28;20029;-82
2022/08/03 14:55:15;;;;;;;14.77;12.98;;;27.70;77.90;;;;;;10324436;28;20031;-81
2022/08/03 15:00:16;;;;;;;18.35;12.70;;;27.70;78.00;;;;;;10305962;28;20081;-82
2022/08/03 15:05:17;;;;;;;16.48;11.60;;;27.70;78.90;;;;;;10325617;28;20058;-83
2022/08/03 15:10:18;;;;;;;8.63;7.25;;;27.60;76.50;;;;;;10324092;28;20475;-82
2022/08/03 15:15:18;;;;;;;6.05;3.65;;;27.40;76.80;;;;;;10324694;28;20390;-83
2022/08/03 15:20:19;;;;;;;11.80;9.50;;;27.30;78.20;;;;;;10319432;28;20043;-82
2022/08/03 15:25:19;;;;;;;13.77;11.05;;;27.40;77.50;;;;;;10319831;28;20026;-83
2022/08/03 15:30:20;;;;;;;6.90;5.03;;;27.30;78.10;;;;;;10322894;28;20122;-82
2022/08/03 15:35:21;;;;;;;7.82;4.90;;;27.30;79.10;;;;;;10324908;28;20446;-84
2022/08/03 15:40:21;;;;;;;7.13;4.40;;;27.30;79.90;;;;;;10301020;28;20049;-83
2022/08/03 15:45:22;;;;;;;4.28;3.15;;;27.30;78.90;;;;;;10317002;28;20029;-83
2022/08/03 15:50:22;;;;;;;4.60;3.78;;;27.20;78.50;;;;;;10322534;28;20041;-83
2022/08/03 15:55:23;;;;;;;6.10;3.25;;;27.10;79.20;;;;;;10319429;28;20433;-82
2022/08/03 16:00:24;;;;;;;3.97;3.03;;;27.10;78.90;;;;;;10322163;28;20046;-83
2022/08/03 16:05:24;;;;;;;8.15;2.95;;;27.10;80.50;;;;;;10301036;28;20049;-82
2022/08/03 16:10:27;;;;;;;3.92;3.35;;;27.00;80.00;;;;;;10321786;28;20611;-84
2022/08/03 16:15:28;;;;;;;9.55;5.10;;;26.90;80.90;;;;;;10322112;28;20478;-83
2022/08/03 16:20:28;;;;;;;7.57;3.50;;;26.80;80.00;;;;;;10322393;28;20046;-82
2022/08/03 16:25:29;;;;;;;7.78;3.80;;;26.70;80.90;;;;;;10321155;28;20848;-82
2022/08/03 16:30:29;;;;;;;7.88;4.18;;;26.70;81.60;;;;;;10319598;28;20034;-82
2022/08/03 16:35:30;;;;;;;7.93;4.07;;;26.60;81.00;;;;;;10318720;28;20519;-81
2022/08/03 16:40:31;;;;;;;6.47;4.40;;;26.50;81.90;;;;;;10318443;28;20054;-83
2022/08/03 16:45:32;;;;;;;7.28;3.60;;;26.30;83.90;;;;;;10312143;28;20049;-84
2022/08/03 16:50:33;;;;;;;6.20;4.50;;;26.20;86.40;;;;;;10323101;28;20034;-84
2022/08/03 16:55:35;;;;;;;8.00;4.45;;;25.80;87.50;;;;;;10318681;28;20034;-82
2022/08/03 17:00:36;;;;;;;5.30;3.10;;;25.60;87.80;;;;;;10317320;28;20418;-82
2022/08/03 17:05:36;;;;;;;7.65;5.20;;;25.40;88.20;;;;;;10320181;28;20053;-82
2022/08/03 17:10:40;;;;;;;5.68;4.15;;;25.10;89.10;;;;;;10322190;28;20026;-82
2022/08/03 17:15:47;;;;;;;9.65;7.13;;;24.80;90.30;;;;;;10314590;28;20527;-84
2022/08/03 17:20:49;;;;;;;9.38;7.30;;;24.60;90.80;;;;;;10317223;28;20128;-82
2022/08/03 17:25:50;;;;;;;8.05;6.88;;;24.30;90.90;;;;;;10319739;28;20050;-83
2022/08/03 17:36:10;;;;;;;7.40;6.60;;;23.70;91.90;;;;;;10317786;28;20050;-82
2022/08/03 17:41:12;;;;;;;9.15;6.53;;;23.50;93.00;;;;;;10320666;28;20046;-83
2022/08/03 17:46:13;;;;;;;9.50;6.53;;;23.30;93.80;;;;;;10293098;28;20054;-82
2022/08/03 17:51:16;;;;;;;9.55;6.85;;;23.10;94.70;;;;;;10324333;28;20493;-83
2022/08/03 17:56:38;;;;;;;10.80;7.75;;;22.90;95.50;;;;;;10323346;28;20529;-84
2022/08/03 18:07:06;;;;;;;11.27;7.40;;;22.50;96.40;;;;;;10322739;28;20046;-82
2022/08/03 18:12:11;;;;;;;12.90;7.93;;;22.30;96.60;;;;;;10326771;28;20475;-81
2022/08/03 18:17:21;;;;;;;10.02;8.13;;;22.10;96.90;;;;;;10323367;28;20041;-81
2022/08/03 18:22:23;;;;;;;10.95;6.95;;;21.90;97.50;;;;;;10319599;28;20125;-79
2022/08/03 18:27:24;;;;;;;9.93;6.38;;;21.70;97.50;;;;;;10306270;28;20136;-80
2022/08/03 18:32:26;;;;;;;8.88;5.97;;;21.50;97.80;;;;;;10308435;28;20026;-80
2022/08/03 18:37:28;;;;;;;4.40;3.38;;;21.50;98.00;;;;;;10324841;28;20022;-80
2022/08/03 18:42:30;;;;;;;7.10;3.38;;;21.30;98.20;;;;;;10322370;28;20046;-81
2022/08/03 18:47:45;;;;;;;9.48;6.97;;;21.20;98.90;;;;;;10318210;28;20399;-81
2022/08/03 18:53:04;;;;;;;13.68;9.30;;;21.10;99.90;;;;;;10318231;28;20374;-80
2022/08/03 18:58:12;;;;;;;11.38;8.65;;;20.90;99.90;;;;;;10326724;28;20042;-80
2022/08/03 19:03:13;;;;;;;9.32;7.72;;;20.80;99.90;;;;;;10320818;28;20065;-81
2022/08/03 19:08:34;;;;;;;10.68;8.23;;;20.80;99.90;;;;;;10326674;28;20038;-81
2022/08/03 19:13:47;;;;;;;11.93;8.13;;;20.70;99.90;;;;;;10304017;28;20090;-81
2022/08/03 19:18:49;;;;;;;11.68;8.40;;;20.60;99.90;;;;;;10316631;28;20034;-80
2022/08/03 19:23:50;;;;;;;10.68;8.48;;;20.50;99.90;;;;;;10311044;28;20142;-80
2022/08/03 19:28:55;;;;;;;13.77;8.70;;;20.50;99.90;;;;;;10323811;28;20033;-80
2022/08/03 19:33:57;;;;;;;8.60;6.50;;;20.40;99.90;;;;;;10325470;28;20022;-81
2022/08/03 19:38:58;;;;;;;13.52;9.55;;;20.30;99.90;;;;;;10303135;28;20045;-81
2022/08/03 19:44:03;;;;;;;15.43;10.60;;;20.20;99.90;;;;;;10319799;28;20034;-80
2022/08/03 19:49:09;;;;;;;11.33;7.70;;;20.10;99.90;;;;;;10317492;28;20044;-80
2022/08/03 19:54:14;;;;;;;14.27;7.50;;;19.90;99.90;;;;;;10316277;28;20804;-81
2022/08/03 19:59:17;;;;;;;10.93;6.47;;;19.70;99.90;;;;;;10322093;28;20046;-82
2022/08/03 20:04:17;;;;;;;10.02;5.88;;;19.60;99.90;;;;;;10315814;28;20324;-81
2022/08/03 20:09:19;;;;;;;13.95;6.63;;;19.50;99.90;;;;;;10323862;28;20109;-82
2022/08/03 20:14:20;;;;;;;12.65;7.30;;;19.50;99.90;;;;;;10311342;28;20117;-81
2022/08/03 20:19:21;;;;;;;14.50;8.27;;;19.50;99.90;;;;;;10310842;28;20034;-81
2022/08/03 20:24:26;;;;;;;11.32;7.13;;;19.50;99.90;;;;;;10300663;28;20042;-81
2022/08/03 20:29:33;;;;;;;21.02;13.25;;;19.50;99.90;;;;;;10303832;28;20030;-80
2022/08/03 20:34:34;;;;;;;16.83;7.75;;;19.30;99.90;;;;;;10315363;28;20034;-80
2022/08/03 20:39:35;;;;;;;18.83;15.23;;;19.20;99.90;;;;;;10319127;28;20494;-80
2022/08/03 20:44:36;;;;;;;603.47;99.05;;;19.10;99.90;;;;;;10318214;28;20026;-79
2022/08/03 20:49:37;;;;;;;65.65;14.95;;;19.10;99.90;;;;;;10321258;28;20723;-80
2022/08/03 20:54:39;;;;;;;21.63;16.17;;;19.10;99.90;;;;;;10322267;28;20022;-80
2022/08/03 20:59:43;;;;;;;21.27;15.38;;;19.20;99.90;;;;;;10301299;28;20508;-80
2022/08/03 21:04:43;;;;;;;1999.90;999.90;;;19.10;99.90;;;;;;10318487;28;20030;-80
2022/08/03 21:09:51;;;;;;;21.10;16.75;;;19.00;99.90;;;;;;10316886;28;20030;-80
2022/08/03 21:15:00;;;;;;;19.45;15.95;;;18.90;99.90;;;;;;10314505;28;20042;-79
2022/08/03 21:20:05;;;;;;;20.48;15.95;;;18.90;99.90;;;;;;10320561;28;20065;-80
2022/08/03 21:25:08;;;;;;;19.67;16.10;;;18.70;99.90;;;;;;10319956;28;20082;-80
2022/08/03 21:30:09;;;;;;;26.48;17.17;;;18.70;99.90;;;;;;10315172;28;20030;-80
2022/08/03 21:35:11;;;;;;;21.92;16.83;;;18.70;99.90;;;;;;10321678;28;20034;-80
2022/08/03 21:40:15;;;;;;;95.85;21.98;;;18.60;99.90;;;;;;10304224;28;20054;-80
2022/08/03 21:45:16;;;;;;;24.92;16.60;;;18.60;99.90;;;;;;10319882;28;20138;-80
2022/08/03 21:50:16;;;;;;;19.00;14.00;;;18.50;99.90;;;;;;10315168;28;20080;-80
2022/08/03 21:55:18;;;;;;;295.75;227.98;;;18.40;99.90;;;;;;10322868;28;20069;-80
2022/08/03 22:00:21;;;;;;;371.42;79.05;;;18.30;99.90;;;;;;10320689;28;20074;-79
2022/08/03 22:05:24;;;;;;;22.55;16.83;;;18.20;99.90;;;;;;10319906;28;20038;-80
2022/08/03 22:10:27;;;;;;;21.00;16.20;;;18.20;99.90;;;;;;10317810;28;20031;-80
2022/08/03 22:15:29;;;;;;;22.52;16.50;;;18.20;99.90;;;;;;10310941;28;20043;-80
2022/08/03 22:20:30;;;;;;;19.38;15.00;;;18.20;99.90;;;;;;10310598;28;20046;-80
2022/08/03 22:25:33;;;;;;;20.80;16.17;;;18.20;99.90;;;;;;10315199;28;20035;-80
2022/08/03 22:30:35;;;;;;;24.35;16.90;;;18.20;99.90;;;;;;10317935;28;20054;-80
2022/08/03 22:35:42;;;;;;;23.27;17.13;;;18.30;99.90;;;;;;10318586;28;20027;-80
2022/08/03 22:40:45;;;;;;;22.98;16.80;;;18.20;99.90;;;;;;10316967;28;20050;-81
2022/08/03 22:45:46;;;;;;;27.08;18.25;;;18.20;99.90;;;;;;10324018;28;20390;-80
2022/08/03 22:50:47;;;;;;;23.92;16.88;;;18.30;99.90;;;;;;10325950;28;20037;-80
2022/08/03 22:55:49;;;;;;;22.77;16.70;;;18.20;99.90;;;;;;10307729;28;20157;-80
2022/08/03 23:01:07;;;;;;;24.25;19.00;;;18.20;99.90;;;;;;10312046;28;20065;-80
2022/08/03 23:06:08;;;;;;;22.17;17.25;;;18.10;99.90;;;;;;10319459;28;20439;-79
2022/08/03 23:11:08;;;;;;;25.35;19.15;;;18.00;99.90;;;;;;10314064;28;20050;-80
2022/08/03 23:16:09;;;;;;;27.52;17.95;;;17.90;99.90;;;;;;10314735;28;20106;-80
2022/08/03 23:21:10;;;;;;;22.67;18.02;;;17.80;99.90;;;;;;10300186;28;20038;-81
2022/08/03 23:26:12;;;;;;;21.45;16.25;;;17.90;99.90;;;;;;10308819;28;20418;-81
2022/08/03 23:31:14;;;;;;;23.92;18.85;;;17.90;99.90;;;;;;10309909;28;20058;-81
2022/08/03 23:36:17;;;;;;;27.98;19.70;;;17.90;99.90;;;;;;10286602;28;20832;-80
2022/08/03 23:41:18;;;;;;;25.55;19.05;;;17.80;99.90;;;;;;10305245;28;20054;-80
2022/08/03 23:46:21;;;;;;;25.35;19.48;;;17.70;99.90;;;;;;10300466;28;20033;-81
2022/08/03 23:51:28;;;;;;;27.25;19.27;;;17.80;99.90;;;;;;10305507;28;20033;-80
2022/08/03 23:56:52;;;;;;;21.95;17.60;;;17.70;99.90;;;;;;10299874;28;20042;-81
